sensor_id;sensor_type;location;lat;lon;timestamp;P1;durP1;ratioP1;P2;durP2;ratioP2
18376;SDS011;9315;52.624;13.544;2024-03-07T00:00:11;122.27;;;36.57;;
18376;SDS011;9315;52.624;13.544;2024-03-07T00:02:47;130.43;;;36.27;;
18376;SDS011;9315;52.624;13.544;2024-03-07T00:05:17;108.90;;;34.20;;
18376;SDS011;9315;52.624;13.544;2024-03-07T00:07:48;120.17;;;33.97;;
18376;SDS011;9315;52.624;13.544;2024-03-07T00:10:15;128.73;;;36.27;;
18376;SDS011;9315;52.624;13.544;2024-03-07T00:12:43;125.27;;;35.90;;
18376;SDS011;9315;52.624;13.544;2024-03-07T00:15:13;119.33;;;36.43;;
18376;SDS011;9315;52.624;13.544;2024-03-07T00:17:41;139.67;;;36.07;;
18376;SDS011;9315;52.624;13.544;2024-03-07T00:20:10;128.67;;;37.50;;
18376;SDS011;9315;52.624;13.544;2024-03-07T00:22:42;118.13;;;36.80;;
18376;SDS011;9315;52.624;13.544;2024-03-07T00:25:10;133.43;;;36.20;;
18376;SDS011;9315;52.624;13.544;2024-03-07T00:27:41;123.20;;;35.97;;
18376;SDS011;9315;52.624;13.544;2024-03-07T00:30:12;122.13;;;38.47;;
18376;SDS011;9315;52.624;13.544;2024-03-07T00:32:46;114.80;;;36.20;;
18376;SDS011;9315;52.624;13.544;2024-03-07T00:35:15;116.47;;;36.67;;
18376;SDS011;9315;52.624;13.544;2024-03-07T00:37:42;108.43;;;35.70;;
18376;SDS011;9315;52.624;13.544;2024-03-07T00:40:11;119.20;;;35.43;;
18376;SDS011;9315;52.624;13.544;2024-03-07T00:42:38;112.73;;;35.50;;
18376;SDS011;9315;52.624;13.544;2024-03-07T00:45:06;116.40;;;36.63;;
18376;SDS011;9315;52.624;13.544;2024-03-07T00:47:34;132.90;;;40.83;;
18376;SDS011;9315;52.624;13.544;2024-03-07T00:50:01;124.70;;;37.20;;
18376;SDS011;9315;52.624;13.544;2024-03-07T00:52:29;129.57;;;38.63;;
18376;SDS011;9315;52.624;13.544;2024-03-07T00:54:56;127.93;;;38.70;;
18376;SDS011;9315;52.624;13.544;2024-03-07T00:57:24;117.53;;;37.73;;
18376;SDS011;9315;52.624;13.544;2024-03-07T00:59:51;124.67;;;37.30;;
18376;SDS011;9315;52.624;13.544;2024-03-07T01:02:19;133.63;;;39.13;;
18376;SDS011;9315;52.624;13.544;2024-03-07T01:04:46;127.13;;;40.40;;
18376;SDS011;9315;52.624;13.544;2024-03-07T01:07:14;135.70;;;39.07;;
18376;SDS011;9315;52.624;13.544;2024-03-07T01:09:42;118.53;;;38.83;;
18376;SDS011;9315;52.624;13.544;2024-03-07T01:12:09;125.80;;;37.87;;
18376;SDS011;9315;52.624;13.544;2024-03-07T01:14:38;119.80;;;37.90;;
18376;SDS011;9315;52.624;13.544;2024-03-07T01:17:05;132.03;;;37.97;;
18376;SDS011;9315;52.624;13.544;2024-03-07T01:19:34;117.57;;;37.10;;
18376;SDS011;9315;52.624;13.544;2024-03-07T01:22:02;106.87;;;35.87;;
18376;SDS011;9315;52.624;13.544;2024-03-07T01:24:29;118.63;;;36.57;;
18376;SDS011;9315;52.624;13.544;2024-03-07T01:26:57;110.23;;;36.00;;
18376;SDS011;9315;52.624;13.544;2024-03-07T01:29:26;114.60;;;35.20;;
18376;SDS011;9315;52.624;13.544;2024-03-07T01:31:54;114.97;;;36.67;;
18376;SDS011;9315;52.624;13.544;2024-03-07T01:34:22;117.27;;;36.00;;
18376;SDS011;9315;52.624;13.544;2024-03-07T01:36:49;115.93;;;36.83;;
18376;SDS011;9315;52.624;13.544;2024-03-07T01:39:16;115.03;;;36.80;;
18376;SDS011;9315;52.624;13.544;2024-03-07T01:41:44;114.90;;;37.37;;
18376;SDS011;9315;52.624;13.544;2024-03-07T01:44:12;126.83;;;36.87;;
18376;SDS011;9315;52.624;13.544;2024-03-07T01:46:39;99.27;;;35.57;;
18376;SDS011;9315;52.624;13.544;2024-03-07T01:49:10;117.10;;;36.90;;
18376;SDS011;9315;52.624;13.544;2024-03-07T01:51:38;125.43;;;38.47;;
18376;SDS011;9315;52.624;13.544;2024-03-07T01:54:07;132.33;;;39.43;;
18376;SDS011;9315;52.624;13.544;2024-03-07T01:56:36;134.40;;;40.53;;
18376;SDS011;9315;52.624;13.544;2024-03-07T01:59:05;124.37;;;39.43;;
18376;SDS011;9315;52.624;13.544;2024-03-07T02:01:34;129.27;;;41.30;;
18376;SDS011;9315;52.624;13.544;2024-03-07T02:04:03;134.80;;;42.03;;
18376;SDS011;9315;52.624;13.544;2024-03-07T02:06:31;151.93;;;42.83;;
18376;SDS011;9315;52.624;13.544;2024-03-07T02:09:00;127.20;;;39.07;;
18376;SDS011;9315;52.624;13.544;2024-03-07T02:11:29;138.57;;;42.03;;
18376;SDS011;9315;52.624;13.544;2024-03-07T02:13:57;127.50;;;40.97;;
18376;SDS011;9315;52.624;13.544;2024-03-07T02:16:24;120.53;;;40.33;;
18376;SDS011;9315;52.624;13.544;2024-03-07T02:18:54;123.03;;;42.77;;
18376;SDS011;9315;52.624;13.544;2024-03-07T02:21:23;161.93;;;46.47;;
18376;SDS011;9315;52.624;13.544;2024-03-07T02:23:50;164.53;;;47.30;;
18376;SDS011;9315;52.624;13.544;2024-03-07T02:26:18;141.40;;;42.40;;
18376;SDS011;9315;52.624;13.544;2024-03-07T02:28:45;135.77;;;42.67;;
18376;SDS011;9315;52.624;13.544;2024-03-07T02:31:13;134.90;;;42.17;;
18376;SDS011;9315;52.624;13.544;2024-03-07T02:33:40;140.90;;;45.37;;
18376;SDS011;9315;52.624;13.544;2024-03-07T02:36:08;144.10;;;43.67;;
18376;SDS011;9315;52.624;13.544;2024-03-07T02:38:35;165.73;;;45.53;;
18376;SDS011;9315;52.624;13.544;2024-03-07T02:41:03;142.50;;;44.60;;
18376;SDS011;9315;52.624;13.544;2024-03-07T02:43:30;142.50;;;44.10;;
18376;SDS011;9315;52.624;13.544;2024-03-07T02:45:58;154.93;;;46.17;;
18376;SDS011;9315;52.624;13.544;2024-03-07T02:48:25;160.43;;;46.97;;
18376;SDS011;9315;52.624;13.544;2024-03-07T02:50:53;129.00;;;43.67;;
18376;SDS011;9315;52.624;13.544;2024-03-07T02:53:20;145.63;;;44.10;;
18376;SDS011;9315;52.624;13.544;2024-03-07T02:55:48;137.80;;;43.60;;
18376;SDS011;9315;52.624;13.544;2024-03-07T02:58:16;129.27;;;41.83;;
18376;SDS011;9315;52.624;13.544;2024-03-07T03:00:43;135.30;;;42.33;;
18376;SDS011;9315;52.624;13.544;2024-03-07T03:03:11;144.50;;;41.30;;
18376;SDS011;9315;52.624;13.544;2024-03-07T03:05:38;133.37;;;43.27;;
18376;SDS011;9315;52.624;13.544;2024-03-07T03:08:06;133.07;;;42.23;;
18376;SDS011;9315;52.624;13.544;2024-03-07T03:10:33;132.40;;;41.47;;
18376;SDS011;9315;52.624;13.544;2024-03-07T03:13:01;122.83;;;41.07;;
18376;SDS011;9315;52.624;13.544;2024-03-07T03:15:28;137.10;;;42.03;;
18376;SDS011;9315;52.624;13.544;2024-03-07T03:17:58;116.37;;;39.43;;
18376;SDS011;9315;52.624;13.544;2024-03-07T03:20:28;131.17;;;41.70;;
18376;SDS011;9315;52.624;13.544;2024-03-07T03:23:05;112.83;;;39.90;;
18376;SDS011;9315;52.624;13.544;2024-03-07T03:25:46;135.00;;;40.00;;
18376;SDS011;9315;52.624;13.544;2024-03-07T03:28:17;119.47;;;38.93;;
18376;SDS011;9315;52.624;13.544;2024-03-07T03:30:46;129.93;;;41.47;;
18376;SDS011;9315;52.624;13.544;2024-03-07T03:33:16;135.27;;;42.07;;
18376;SDS011;9315;52.624;13.544;2024-03-07T03:35:44;109.93;;;37.87;;
18376;SDS011;9315;52.624;13.544;2024-03-07T03:38:12;112.40;;;37.13;;
18376;SDS011;9315;52.624;13.544;2024-03-07T03:40:40;113.07;;;37.70;;
18376;SDS011;9315;52.624;13.544;2024-03-07T03:43:07;117.87;;;38.83;;
18376;SDS011;9315;52.624;13.544;2024-03-07T03:45:35;105.27;;;35.77;;
18376;SDS011;9315;52.624;13.544;2024-03-07T03:48:02;99.77;;;35.10;;
18376;SDS011;9315;52.624;13.544;2024-03-07T03:50:30;91.37;;;35.57;;
18376;SDS011;9315;52.624;13.544;2024-03-07T03:52:58;112.77;;;38.57;;
18376;SDS011;9315;52.624;13.544;2024-03-07T03:55:27;115.57;;;37.13;;
18376;SDS011;9315;52.624;13.544;2024-03-07T03:57:55;88.13;;;33.57;;
18376;SDS011;9315;52.624;13.544;2024-03-07T04:00:22;97.87;;;35.27;;
18376;SDS011;9315;52.624;13.544;2024-03-07T04:02:50;90.73;;;33.97;;
18376;SDS011;9315;52.624;13.544;2024-03-07T04:05:19;90.70;;;35.10;;
18376;SDS011;9315;52.624;13.544;2024-03-07T04:07:50;86.90;;;34.13;;
18376;SDS011;9315;52.624;13.544;2024-03-07T04:10:18;79.77;;;31.13;;
18376;SDS011;9315;52.624;13.544;2024-03-07T04:12:46;78.37;;;31.20;;
18376;SDS011;9315;52.624;13.544;2024-03-07T04:15:14;85.17;;;32.33;;
18376;SDS011;9315;52.624;13.544;2024-03-07T04:17:45;77.57;;;32.57;;
18376;SDS011;9315;52.624;13.544;2024-03-07T04:20:14;80.60;;;31.20;;
18376;SDS011;9315;52.624;13.544;2024-03-07T04:22:45;76.07;;;32.80;;
18376;SDS011;9315;52.624;13.544;2024-03-07T04:25:13;76.10;;;31.77;;
18376;SDS011;9315;52.624;13.544;2024-03-07T04:27:41;79.83;;;32.97;;
18376;SDS011;9315;52.624;13.544;2024-03-07T04:30:09;78.00;;;30.90;;
18376;SDS011;9315;52.624;13.544;2024-03-07T04:32:37;80.00;;;30.87;;
18376;SDS011;9315;52.624;13.544;2024-03-07T04:35:06;77.03;;;32.33;;
18376;SDS011;9315;52.624;13.544;2024-03-07T04:37:34;85.23;;;34.73;;
18376;SDS011;9315;52.624;13.544;2024-03-07T04:40:06;85.90;;;34.17;;
18376;SDS011;9315;52.624;13.544;2024-03-07T04:42:47;68.17;;;30.17;;
18376;SDS011;9315;52.624;13.544;2024-03-07T04:45:16;80.57;;;32.43;;
18376;SDS011;9315;52.624;13.544;2024-03-07T04:47:45;70.17;;;29.33;;
18376;SDS011;9315;52.624;13.544;2024-03-07T04:50:15;73.03;;;29.77;;
18376;SDS011;9315;52.624;13.544;2024-03-07T04:52:46;73.40;;;30.33;;
18376;SDS011;9315;52.624;13.544;2024-03-07T04:55:16;69.93;;;31.00;;
18376;SDS011;9315;52.624;13.544;2024-03-07T04:57:43;68.43;;;29.17;;
18376;SDS011;9315;52.624;13.544;2024-03-07T05:00:11;72.47;;;30.70;;
18376;SDS011;9315;52.624;13.544;2024-03-07T05:02:43;71.90;;;30.60;;
18376;SDS011;9315;52.624;13.544;2024-03-07T05:05:17;72.47;;;31.03;;
18376;SDS011;9315;52.624;13.544;2024-03-07T05:07:54;85.77;;;32.97;;
18376;SDS011;9315;52.624;13.544;2024-03-07T05:10:22;80.20;;;31.87;;
18376;SDS011;9315;52.624;13.544;2024-03-07T05:12:50;79.90;;;32.80;;
18376;SDS011;9315;52.624;13.544;2024-03-07T05:15:18;71.93;;;30.77;;
18376;SDS011;9315;52.624;13.544;2024-03-07T05:17:45;75.53;;;32.07;;
18376;SDS011;9315;52.624;13.544;2024-03-07T05:20:13;79.03;;;33.70;;
18376;SDS011;9315;52.624;13.544;2024-03-07T05:22:41;76.90;;;32.63;;
18376;SDS011;9315;52.624;13.544;2024-03-07T05:25:18;88.77;;;33.67;;
18376;SDS011;9315;52.624;13.544;2024-03-07T05:27:46;85.70;;;33.50;;
18376;SDS011;9315;52.624;13.544;2024-03-07T05:30:18;88.57;;;32.70;;
18376;SDS011;9315;52.624;13.544;2024-03-07T05:32:46;87.17;;;34.50;;
18376;SDS011;9315;52.624;13.544;2024-03-07T05:35:15;95.53;;;36.57;;
18376;SDS011;9315;52.624;13.544;2024-03-07T05:37:47;74.07;;;31.20;;
18376;SDS011;9315;52.624;13.544;2024-03-07T05:40:14;79.03;;;32.50;;
18376;SDS011;9315;52.624;13.544;2024-03-07T05:42:41;85.70;;;33.23;;
18376;SDS011;9315;52.624;13.544;2024-03-07T05:45:09;80.43;;;32.33;;
18376;SDS011;9315;52.624;13.544;2024-03-07T05:47:37;83.03;;;33.23;;
18376;SDS011;9315;52.624;13.544;2024-03-07T05:50:04;77.17;;;31.77;;
18376;SDS011;9315;52.624;13.544;2024-03-07T05:52:34;85.17;;;32.80;;
18376;SDS011;9315;52.624;13.544;2024-03-07T05:55:02;93.80;;;33.67;;
18376;SDS011;9315;52.624;13.544;2024-03-07T05:57:33;78.57;;;32.07;;
18376;SDS011;9315;52.624;13.544;2024-03-07T06:00:00;95.90;;;35.43;;
18376;SDS011;9315;52.624;13.544;2024-03-07T06:02:28;99.53;;;36.03;;
18376;SDS011;9315;52.624;13.544;2024-03-07T06:04:55;105.27;;;37.87;;
18376;SDS011;9315;52.624;13.544;2024-03-07T06:07:23;89.53;;;34.30;;
18376;SDS011;9315;52.624;13.544;2024-03-07T06:09:50;78.40;;;33.37;;
18376;SDS011;9315;52.624;13.544;2024-03-07T06:12:18;77.07;;;32.53;;
18376;SDS011;9315;52.624;13.544;2024-03-07T06:14:53;97.17;;;35.47;;
18376;SDS011;9315;52.624;13.544;2024-03-07T06:17:21;82.47;;;33.97;;
18376;SDS011;9315;52.624;13.544;2024-03-07T06:19:50;93.37;;;35.20;;
18376;SDS011;9315;52.624;13.544;2024-03-07T06:22:17;80.57;;;31.43;;
18376;SDS011;9315;52.624;13.544;2024-03-07T06:24:45;82.50;;;31.37;;
18376;SDS011;9315;52.624;13.544;2024-03-07T06:27:12;86.47;;;32.30;;
18376;SDS011;9315;52.624;13.544;2024-03-07T06:29:54;81.30;;;31.80;;
18376;SDS011;9315;52.624;13.544;2024-03-07T06:32:23;85.27;;;33.93;;
18376;SDS011;9315;52.624;13.544;2024-03-07T06:34:50;84.70;;;33.83;;
18376;SDS011;9315;52.624;13.544;2024-03-07T06:37:20;84.37;;;34.53;;
18376;SDS011;9315;52.624;13.544;2024-03-07T06:39:47;96.63;;;37.07;;
18376;SDS011;9315;52.624;13.544;2024-03-07T06:42:14;95.23;;;37.73;;
18376;SDS011;9315;52.624;13.544;2024-03-07T06:44:42;106.17;;;38.07;;
18376;SDS011;9315;52.624;13.544;2024-03-07T06:47:10;102.43;;;36.77;;
18376;SDS011;9315;52.624;13.544;2024-03-07T06:49:37;86.30;;;34.17;;
18376;SDS011;9315;52.624;13.544;2024-03-07T06:52:06;87.63;;;34.57;;
18376;SDS011;9315;52.624;13.544;2024-03-07T06:54:36;75.23;;;31.30;;
18376;SDS011;9315;52.624;13.544;2024-03-07T06:57:03;99.47;;;34.40;;
18376;SDS011;9315;52.624;13.544;2024-03-07T06:59:31;96.87;;;32.07;;
18376;SDS011;9315;52.624;13.544;2024-03-07T07:01:59;86.20;;;31.37;;
18376;SDS011;9315;52.624;13.544;2024-03-07T07:04:26;78.73;;;32.53;;
18376;SDS011;9315;52.624;13.544;2024-03-07T07:07:05;80.57;;;32.57;;
18376;SDS011;9315;52.624;13.544;2024-03-07T07:09:35;76.73;;;32.23;;
18376;SDS011;9315;52.624;13.544;2024-03-07T07:12:03;70.07;;;29.87;;
18376;SDS011;9315;52.624;13.544;2024-03-07T07:14:31;74.97;;;29.27;;
18376;SDS011;9315;52.624;13.544;2024-03-07T07:16:58;74.13;;;31.23;;
18376;SDS011;9315;52.624;13.544;2024-03-07T07:19:26;66.53;;;28.57;;
18376;SDS011;9315;52.624;13.544;2024-03-07T07:21:53;63.10;;;24.90;;
18376;SDS011;9315;52.624;13.544;2024-03-07T07:24:21;55.20;;;27.80;;
18376;SDS011;9315;52.624;13.544;2024-03-07T07:26:50;54.63;;;25.83;;
18376;SDS011;9315;52.624;13.544;2024-03-07T07:29:18;51.27;;;24.57;;
18376;SDS011;9315;52.624;13.544;2024-03-07T07:31:47;48.60;;;22.53;;
18376;SDS011;9315;52.624;13.544;2024-03-07T07:34:14;45.53;;;22.43;;
18376;SDS011;9315;52.624;13.544;2024-03-07T07:36:41;40.10;;;21.03;;
18376;SDS011;9315;52.624;13.544;2024-03-07T07:39:09;41.73;;;18.90;;
18376;SDS011;9315;52.624;13.544;2024-03-07T07:41:43;41.47;;;20.07;;
18376;SDS011;9315;52.624;13.544;2024-03-07T07:44:11;37.17;;;18.13;;
18376;SDS011;9315;52.624;13.544;2024-03-07T07:46:40;36.67;;;18.83;;
18376;SDS011;9315;52.624;13.544;2024-03-07T07:49:07;36.97;;;18.70;;
18376;SDS011;9315;52.624;13.544;2024-03-07T07:51:35;36.93;;;18.80;;
18376;SDS011;9315;52.624;13.544;2024-03-07T07:54:03;37.20;;;18.93;;
18376;SDS011;9315;52.624;13.544;2024-03-07T07:56:30;32.73;;;17.77;;
18376;SDS011;9315;52.624;13.544;2024-03-07T07:58:58;34.57;;;17.60;;
18376;SDS011;9315;52.624;13.544;2024-03-07T08:01:25;32.33;;;17.60;;
18376;SDS011;9315;52.624;13.544;2024-03-07T08:03:53;32.70;;;17.90;;
18376;SDS011;9315;52.624;13.544;2024-03-07T08:06:21;32.10;;;17.37;;
18376;SDS011;9315;52.624;13.544;2024-03-07T08:08:48;30.83;;;17.03;;
18376;SDS011;9315;52.624;13.544;2024-03-07T08:11:16;35.47;;;17.40;;
18376;SDS011;9315;52.624;13.544;2024-03-07T08:13:44;30.13;;;16.60;;
18376;SDS011;9315;52.624;13.544;2024-03-07T08:16:14;30.77;;;17.30;;
18376;SDS011;9315;52.624;13.544;2024-03-07T08:18:42;29.60;;;16.77;;
18376;SDS011;9315;52.624;13.544;2024-03-07T08:21:10;30.83;;;17.30;;
18376;SDS011;9315;52.624;13.544;2024-03-07T08:23:38;30.70;;;16.93;;
18376;SDS011;9315;52.624;13.544;2024-03-07T08:26:06;29.27;;;15.60;;
18376;SDS011;9315;52.624;13.544;2024-03-07T08:28:33;30.57;;;16.60;;
18376;SDS011;9315;52.624;13.544;2024-03-07T08:31:01;30.47;;;16.00;;
18376;SDS011;9315;52.624;13.544;2024-03-07T08:33:29;26.77;;;15.17;;
18376;SDS011;9315;52.624;13.544;2024-03-07T08:36:00;26.53;;;15.60;;
18376;SDS011;9315;52.624;13.544;2024-03-07T08:38:28;32.27;;;16.03;;
18376;SDS011;9315;52.624;13.544;2024-03-07T08:40:55;31.67;;;15.60;;
18376;SDS011;9315;52.624;13.544;2024-03-07T08:43:23;26.13;;;15.37;;
18376;SDS011;9315;52.624;13.544;2024-03-07T08:45:50;30.30;;;16.50;;
18376;SDS011;9315;52.624;13.544;2024-03-07T08:48:18;23.97;;;14.33;;
18376;SDS011;9315;52.624;13.544;2024-03-07T08:50:46;26.93;;;14.47;;
18376;SDS011;9315;52.624;13.544;2024-03-07T08:53:14;24.80;;;13.73;;
18376;SDS011;9315;52.624;13.544;2024-03-07T08:55:42;28.37;;;14.90;;
18376;SDS011;9315;52.624;13.544;2024-03-07T08:58:09;24.90;;;14.10;;
18376;SDS011;9315;52.624;13.544;2024-03-07T09:00:37;24.23;;;14.80;;
18376;SDS011;9315;52.624;13.544;2024-03-07T09:03:05;25.93;;;13.10;;
18376;SDS011;9315;52.624;13.544;2024-03-07T09:05:38;26.70;;;14.00;;
18376;SDS011;9315;52.624;13.544;2024-03-07T09:08:07;23.60;;;13.27;;
18376;SDS011;9315;52.624;13.544;2024-03-07T09:10:35;25.27;;;13.90;;
18376;SDS011;9315;52.624;13.544;2024-03-07T09:13:03;25.30;;;13.80;;
18376;SDS011;9315;52.624;13.544;2024-03-07T09:15:32;27.13;;;14.43;;
18376;SDS011;9315;52.624;13.544;2024-03-07T09:18:00;24.53;;;14.07;;
18376;SDS011;9315;52.624;13.544;2024-03-07T09:20:30;27.13;;;14.20;;
18376;SDS011;9315;52.624;13.544;2024-03-07T09:22:58;24.27;;;13.17;;
18376;SDS011;9315;52.624;13.544;2024-03-07T09:25:26;26.20;;;13.80;;
18376;SDS011;9315;52.624;13.544;2024-03-07T09:27:54;23.97;;;12.57;;
18376;SDS011;9315;52.624;13.544;2024-03-07T09:30:22;26.30;;;13.20;;
18376;SDS011;9315;52.624;13.544;2024-03-07T09:32:55;24.70;;;13.87;;
18376;SDS011;9315;52.624;13.544;2024-03-07T09:35:23;22.43;;;13.07;;
18376;SDS011;9315;52.624;13.544;2024-03-07T09:37:51;26.50;;;12.30;;
18376;SDS011;9315;52.624;13.544;2024-03-07T09:40:21;25.73;;;12.80;;
18376;SDS011;9315;52.624;13.544;2024-03-07T09:42:53;25.33;;;12.50;;
18376;SDS011;9315;52.624;13.544;2024-03-07T09:45:23;23.93;;;12.30;;
18376;SDS011;9315;52.624;13.544;2024-03-07T09:47:59;17.20;;;10.70;;
18376;SDS011;9315;52.624;13.544;2024-03-07T09:50:29;25.30;;;11.87;;
18376;SDS011;9315;52.624;13.544;2024-03-07T09:52:58;22.03;;;12.70;;
18376;SDS011;9315;52.624;13.544;2024-03-07T09:55:27;20.37;;;12.40;;
18376;SDS011;9315;52.624;13.544;2024-03-07T09:57:56;24.00;;;12.43;;
18376;SDS011;9315;52.624;13.544;2024-03-07T10:00:26;19.20;;;11.50;;
18376;SDS011;9315;52.624;13.544;2024-03-07T10:02:58;17.97;;;10.10;;
18376;SDS011;9315;52.624;13.544;2024-03-07T10:05:34;19.40;;;10.30;;
18376;SDS011;9315;52.624;13.544;2024-03-07T10:08:04;16.03;;;11.07;;
18376;SDS011;9315;52.624;13.544;2024-03-07T10:10:34;15.97;;;10.30;;
18376;SDS011;9315;52.624;13.544;2024-03-07T10:13:02;17.30;;;10.20;;
18376;SDS011;9315;52.624;13.544;2024-03-07T10:15:32;17.63;;;10.13;;
18376;SDS011;9315;52.624;13.544;2024-03-07T10:18:01;17.07;;;9.63;;
18376;SDS011;9315;52.624;13.544;2024-03-07T10:20:29;16.30;;;10.50;;
18376;SDS011;9315;52.624;13.544;2024-03-07T10:22:57;15.00;;;8.77;;
18376;SDS011;9315;52.624;13.544;2024-03-07T10:25:26;16.77;;;10.10;;
18376;SDS011;9315;52.624;13.544;2024-03-07T10:27:55;16.70;;;9.67;;
18376;SDS011;9315;52.624;13.544;2024-03-07T10:30:25;15.40;;;10.00;;
18376;SDS011;9315;52.624;13.544;2024-03-07T10:32:55;20.17;;;9.53;;
18376;SDS011;9315;52.624;13.544;2024-03-07T10:35:28;18.47;;;9.83;;
18376;SDS011;9315;52.624;13.544;2024-03-07T10:37:57;19.43;;;9.70;;
18376;SDS011;9315;52.624;13.544;2024-03-07T10:40:33;14.10;;;8.70;;
18376;SDS011;9315;52.624;13.544;2024-03-07T10:43:10;17.67;;;8.97;;
18376;SDS011;9315;52.624;13.544;2024-03-07T10:45:45;20.80;;;10.70;;
18376;SDS011;9315;52.624;13.544;2024-03-07T10:48:23;20.47;;;9.30;;
18376;SDS011;9315;52.624;13.544;2024-03-07T10:54:13;15.13;;;8.83;;
18376;SDS011;9315;52.624;13.544;2024-03-07T11:00:07;17.00;;;9.40;;
18376;SDS011;9315;52.624;13.544;2024-03-07T11:03:08;16.17;;;9.30;;
18376;SDS011;9315;52.624;13.544;2024-03-07T11:05:38;14.53;;;9.20;;
18376;SDS011;9315;52.624;13.544;2024-03-07T11:08:06;20.07;;;9.27;;
18376;SDS011;9315;52.624;13.544;2024-03-07T11:10:45;15.03;;;9.50;;
18376;SDS011;9315;52.624;13.544;2024-03-07T11:13:14;14.33;;;8.57;;
18376;SDS011;9315;52.624;13.544;2024-03-07T11:15:44;17.63;;;10.13;;
18376;SDS011;9315;52.624;13.544;2024-03-07T11:18:15;15.83;;;9.57;;
18376;SDS011;9315;52.624;13.544;2024-03-07T11:20:44;17.50;;;10.37;;
18376;SDS011;9315;52.624;13.544;2024-03-07T11:23:28;14.67;;;8.83;;
18376;SDS011;9315;52.624;13.544;2024-03-07T11:26:06;17.83;;;9.80;;
18376;SDS011;9315;52.624;13.544;2024-03-07T11:28:37;19.50;;;10.30;;
18376;SDS011;9315;52.624;13.544;2024-03-07T11:36:46;17.37;;;10.50;;
18376;SDS011;9315;52.624;13.544;2024-03-07T11:42:22;16.13;;;10.53;;
18376;SDS011;9315;52.624;13.544;2024-03-07T11:44:55;16.20;;;9.73;;
18376;SDS011;9315;52.624;13.544;2024-03-07T11:47:25;16.47;;;10.27;;
18376;SDS011;9315;52.624;13.544;2024-03-07T11:50:02;18.10;;;10.23;;
18376;SDS011;9315;52.624;13.544;2024-03-07T11:52:35;14.57;;;8.63;;
18376;SDS011;9315;52.624;13.544;2024-03-07T11:55:05;13.37;;;9.13;;
18376;SDS011;9315;52.624;13.544;2024-03-07T11:57:33;16.30;;;10.23;;
18376;SDS011;9315;52.624;13.544;2024-03-07T12:00:01;14.20;;;9.97;;
18376;SDS011;9315;52.624;13.544;2024-03-07T12:02:37;15.60;;;10.60;;
18376;SDS011;9315;52.624;13.544;2024-03-07T12:05:07;16.20;;;9.03;;
18376;SDS011;9315;52.624;13.544;2024-03-07T12:07:36;17.70;;;10.17;;
18376;SDS011;9315;52.624;13.544;2024-03-07T12:10:05;19.07;;;11.80;;
18376;SDS011;9315;52.624;13.544;2024-03-07T12:12:33;19.20;;;11.30;;
18376;SDS011;9315;52.624;13.544;2024-03-07T12:15:06;18.57;;;11.10;;
18376;SDS011;9315;52.624;13.544;2024-03-07T12:17:49;18.97;;;11.20;;
18376;SDS011;9315;52.624;13.544;2024-03-07T12:20:17;16.47;;;10.90;;
18376;SDS011;9315;52.624;13.544;2024-03-07T12:22:58;16.13;;;10.73;;
18376;SDS011;9315;52.624;13.544;2024-03-07T12:25:32;16.70;;;10.60;;
18376;SDS011;9315;52.624;13.544;2024-03-07T12:28:00;17.40;;;11.10;;
18376;SDS011;9315;52.624;13.544;2024-03-07T12:30:51;17.17;;;11.20;;
18376;SDS011;9315;52.624;13.544;2024-03-07T12:33:23;17.67;;;11.53;;
18376;SDS011;9315;52.624;13.544;2024-03-07T12:35:54;19.17;;;10.70;;
18376;SDS011;9315;52.624;13.544;2024-03-07T12:38:33;14.90;;;7.63;;
18376;SDS011;9315;52.624;13.544;2024-03-07T12:41:08;18.77;;;11.27;;
18376;SDS011;9315;52.624;13.544;2024-03-07T12:43:42;20.23;;;12.07;;
18376;SDS011;9315;52.624;13.544;2024-03-07T12:46:10;19.07;;;12.17;;
18376;SDS011;9315;52.624;13.544;2024-03-07T12:48:40;19.10;;;11.73;;
18376;SDS011;9315;52.624;13.544;2024-03-07T12:51:09;17.07;;;11.00;;
18376;SDS011;9315;52.624;13.544;2024-03-07T12:53:37;19.03;;;12.57;;
18376;SDS011;9315;52.624;13.544;2024-03-07T12:56:04;18.77;;;11.90;;
18376;SDS011;9315;52.624;13.544;2024-03-07T12:58:32;20.03;;;11.70;;
18376;SDS011;9315;52.624;13.544;2024-03-07T13:00:59;18.90;;;12.63;;
18376;SDS011;9315;52.624;13.544;2024-03-07T13:03:27;20.60;;;12.37;;
18376;SDS011;9315;52.624;13.544;2024-03-07T13:05:57;18.60;;;11.87;;
18376;SDS011;9315;52.624;13.544;2024-03-07T13:08:29;17.60;;;11.97;;
18376;SDS011;9315;52.624;13.544;2024-03-07T13:10:57;15.97;;;11.00;;
18376;SDS011;9315;52.624;13.544;2024-03-07T13:13:28;19.27;;;11.30;;
18376;SDS011;9315;52.624;13.544;2024-03-07T13:15:57;18.73;;;12.37;;
18376;SDS011;9315;52.624;13.544;2024-03-07T13:18:24;17.03;;;11.70;;
18376;SDS011;9315;52.624;13.544;2024-03-07T13:20:52;20.43;;;12.07;;
18376;SDS011;9315;52.624;13.544;2024-03-07T13:23:20;18.17;;;10.17;;
18376;SDS011;9315;52.624;13.544;2024-03-07T13:25:47;17.17;;;11.17;;
18376;SDS011;9315;52.624;13.544;2024-03-07T13:28:15;16.70;;;11.03;;
18376;SDS011;9315;52.624;13.544;2024-03-07T13:30:46;15.47;;;10.87;;
18376;SDS011;9315;52.624;13.544;2024-03-07T13:33:16;20.60;;;13.77;;
18376;SDS011;9315;52.624;13.544;2024-03-07T13:35:44;16.80;;;11.13;;
18376;SDS011;9315;52.624;13.544;2024-03-07T13:38:12;14.50;;;9.23;;
18376;SDS011;9315;52.624;13.544;2024-03-07T13:40:42;15.63;;;9.77;;
18376;SDS011;9315;52.624;13.544;2024-03-07T13:43:09;18.40;;;11.70;;
18376;SDS011;9315;52.624;13.544;2024-03-07T13:45:37;17.93;;;11.07;;
18376;SDS011;9315;52.624;13.544;2024-03-07T13:48:10;20.17;;;13.40;;
18376;SDS011;9315;52.624;13.544;2024-03-07T13:50:44;18.57;;;12.70;;
18376;SDS011;9315;52.624;13.544;2024-03-07T13:53:24;20.83;;;13.93;;
18376;SDS011;9315;52.624;13.544;2024-03-07T14:23:44;17.03;;;11.83;;
18376;SDS011;9315;52.624;13.544;2024-03-07T14:30:11;33.63;;;22.83;;
18376;SDS011;9315;52.624;13.544;2024-03-07T14:33:11;25.87;;;18.27;;
18376;SDS011;9315;52.624;13.544;2024-03-07T14:36:00;96.50;;;63.00;;
18376;SDS011;9315;52.624;13.544;2024-03-07T14:38:46;31.40;;;21.53;;
18376;SDS011;9315;52.624;13.544;2024-03-07T14:41:40;28.60;;;19.73;;
18376;SDS011;9315;52.624;13.544;2024-03-07T14:44:28;19.40;;;15.33;;
18376;SDS011;9315;52.624;13.544;2024-03-07T14:47:02;22.10;;;12.33;;
18376;SDS011;9315;52.624;13.544;2024-03-07T14:49:34;19.40;;;11.97;;
18376;SDS011;9315;52.624;13.544;2024-03-07T14:52:06;20.93;;;11.77;;
18376;SDS011;9315;52.624;13.544;2024-03-07T14:54:39;19.03;;;11.60;;
18376;SDS011;9315;52.624;13.544;2024-03-07T14:57:11;18.33;;;11.23;;
18376;SDS011;9315;52.624;13.544;2024-03-07T14:59:40;14.90;;;11.03;;
18376;SDS011;9315;52.624;13.544;2024-03-07T15:02:10;15.30;;;10.27;;
18376;SDS011;9315;52.624;13.544;2024-03-07T15:04:40;16.80;;;10.37;;
18376;SDS011;9315;52.624;13.544;2024-03-07T15:07:08;16.17;;;10.70;;
18376;SDS011;9315;52.624;13.544;2024-03-07T15:09:37;15.63;;;10.03;;
18376;SDS011;9315;52.624;13.544;2024-03-07T15:12:05;17.80;;;10.83;;
18376;SDS011;9315;52.624;13.544;2024-03-07T15:14:36;15.37;;;10.17;;
18376;SDS011;9315;52.624;13.544;2024-03-07T15:17:07;17.17;;;10.53;;
18376;SDS011;9315;52.624;13.544;2024-03-07T15:19:34;14.83;;;10.73;;